Terminal Aerodrome Forecast
Issued by NWS Cleveland, OH

Home | Current Version | Previous Version | Text Only | Print | Product List | Glossary Off
Versions: 1 2 3 4 5 6 7 8 9 10 11 12

000
FTUS41 KCLE 172300
TAFMFD
TAF
KMFD 172329Z 1800/1824 17008KT P6SM SCT150 OVC250
     FM181300 21008KT P6SM BKN120 OVC200
     FM181600 25008KT P6SM VCSH SCT040 OVC100
     FM182100 32008KT P6SM SCT100 BKN200=

USA.gov is the U.S. government's official web portal to all federal, state and local government web resources and services.